Time;durP1;ratioP1;P1;durP2;ratioP2;P2;SDS_P1;SDS_P2;PMS_P1;PMS_P2;Temp;Humidity;BMP_temperature;BMP_pressure;BME280_temperature;BME280_humidity;BME280_pressure;Samples;Min_cycle;Max_cycle;Signal;HPM_P1;HPM_P2
2022/01/23 00:02:19;;;;;;;11.80;4.55;;;6.10;99.90;;;;;;4940416;28;20047;-51
2022/01/23 00:04:45;;;;;;;11.98;5.07;;;6.10;99.90;;;;;;4968354;28;20483;-52
2022/01/23 00:07:13;;;;;;;11.18;4.93;;;6.10;99.90;;;;;;4975062;28;20049;-52
2022/01/23 00:09:41;;;;;;;11.35;5.10;;;6.10;99.90;;;;;;4973181;28;20038;-52
2022/01/23 00:12:18;;;;;;;13.00;4.53;;;6.10;99.90;;;;;;4966709;28;20043;-52
2022/01/23 00:17:33;;;;;;;11.95;4.50;;;6.10;99.90;;;;;;4965195;28;20085;-53
2022/01/23 00:20:02;;;;;;;13.10;4.35;;;6.10;99.90;;;;;;4973307;28;20046;-52
2022/01/23 00:22:43;;;;;;;11.68;5.03;;;6.10;99.90;;;;;;4974451;28;20038;-52
2022/01/23 00:30:57;;;;;;;10.77;5.18;;;6.20;99.90;;;;;;4938843;28;20045;-51
2022/01/23 00:33:23;;;;;;;14.85;5.78;;;6.20;99.90;;;;;;4974293;28;20418;-52
2022/01/23 00:35:49;;;;;;;14.95;5.13;;;6.20;99.90;;;;;;4974471;28;20043;-52
2022/01/23 00:38:16;;;;;;;11.50;4.95;;;6.20;99.90;;;;;;4974613;28;20423;-53
2022/01/23 00:40:44;;;;;;;10.77;5.40;;;6.20;99.90;;;;;;4974275;28;20557;-53
2022/01/23 00:43:26;;;;;;;9.57;4.97;;;6.20;99.90;;;;;;4974372;28;20133;-50
2022/01/23 00:45:56;;;;;;;13.90;5.13;;;6.20;99.90;;;;;;4972468;28;20388;-53
2022/01/23 00:48:27;;;;;;;14.02;5.28;;;6.20;99.90;;;;;;4972927;28;20384;-52
2022/01/23 00:50:53;;;;;;;10.05;4.95;;;6.20;99.90;;;;;;4973755;28;20043;-52
2022/01/23 00:53:20;;;;;;;10.55;5.28;;;6.20;99.90;;;;;;4972854;28;20043;-52
2022/01/23 00:55:47;;;;;;;9.77;5.72;;;6.20;99.90;;;;;;4956814;28;20483;-52
2022/01/23 00:58:13;;;;;;;14.27;6.13;;;6.20;99.90;;;;;;4973011;28;20045;-51
2022/01/23 01:00:41;;;;;;;13.60;6.05;;;6.20;99.90;;;;;;4974038;28;20039;-53
2022/01/23 01:03:07;;;;;;;12.57;5.90;;;6.10;99.90;;;;;;4973761;28;20415;-53
2022/01/23 01:05:32;;;;;;;15.80;5.55;;;6.20;99.90;;;;;;4973917;28;20047;-52
2022/01/23 01:08:00;;;;;;;13.50;5.55;;;6.20;99.90;;;;;;4968603;28;20069;-50
2022/01/23 01:10:34;;;;;;;15.25;6.65;;;6.20;99.90;;;;;;4974065;28;20347;-52
2022/01/23 01:13:01;;;;;;;11.77;6.05;;;6.20;99.90;;;;;;4973839;28;20113;-51
2022/01/23 01:32:02;;;;;;;12.65;6.45;;;6.20;99.90;;;;;;4973561;28;20518;-51
2022/01/23 01:34:42;;;;;;;12.35;6.18;;;6.20;99.90;;;;;;4973353;28;20042;-54
2022/01/23 01:37:10;;;;;;;16.10;6.72;;;6.20;99.90;;;;;;4973347;28;20042;-51
2022/01/23 01:39:35;;;;;;;13.38;5.93;;;6.20;99.90;;;;;;4972754;28;20125;-54
2022/01/23 01:42:02;;;;;;;16.08;6.38;;;6.20;99.90;;;;;;4972975;28;20123;-52
2022/01/23 01:44:27;;;;;;;11.10;6.20;;;6.20;99.90;;;;;;4972644;28;20042;-54
2022/01/23 01:46:53;;;;;;;13.93;6.38;;;6.20;99.90;;;;;;4967453;28;20082;-53
2022/01/23 01:49:26;;;;;;;13.43;6.55;;;6.20;99.90;;;;;;4973090;28;20039;-53
2022/01/23 01:51:54;;;;;;;16.80;6.82;;;6.20;99.90;;;;;;4971714;28;20038;-54
2022/01/23 01:54:22;;;;;;;13.45;6.18;;;6.20;99.90;;;;;;4972965;28;20078;-54
2022/01/23 01:57:02;;;;;;;11.35;5.50;;;6.20;99.90;;;;;;4972931;28;20407;-53
2022/01/23 02:10:27;;;;;;;12.93;6.63;;;6.20;99.90;;;;;;4965183;28;20133;-53
2022/01/23 02:13:07;;;;;;;11.80;6.57;;;6.20;99.90;;;;;;4972925;28;20503;-53
2022/01/23 02:18:30;;;;;;;13.15;6.47;;;6.20;99.90;;;;;;4972839;28;20529;-52
2022/01/23 02:24:03;;;;;;;15.63;7.20;;;6.20;99.90;;;;;;4972033;28;20049;-53
2022/01/23 02:51:59;;;;;;;15.85;7.05;;;6.20;99.90;;;;;;4972887;28;20122;-55
2022/01/23 02:54:44;;;;;;;12.55;7.18;;;6.10;99.90;;;;;;4965241;28;20055;-52
2022/01/23 02:57:11;;;;;;;14.30;7.03;;;6.10;99.90;;;;;;4964651;28;20039;-54
2022/01/23 02:59:38;;;;;;;17.75;7.47;;;6.20;99.90;;;;;;4972824;28;20074;-52
2022/01/23 03:04:38;;;;;;;16.90;7.82;;;6.10;99.90;;;;;;4972430;28;20046;-53
2022/01/23 03:07:34;;;;;;;15.07;7.82;;;6.10;99.90;;;;;;4955019;28;20049;-54
2022/01/23 03:10:07;;;;;;;14.90;7.60;;;6.10;99.90;;;;;;4974427;28;20042;-54
2022/01/23 03:24:08;;;;;;;15.55;7.95;;;6.10;99.90;;;;;;4966084;28;20125;-52
2022/01/23 03:30:17;;;;;;;13.77;6.97;;;6.20;99.90;;;;;;4976504;28;20058;-50
2022/01/23 03:32:46;;;;;;;14.35;6.82;;;6.20;99.90;;;;;;4961436;28;20415;-51
2022/01/23 03:35:14;;;;;;;14.45;6.97;;;6.20;99.90;;;;;;4975933;28;20074;-51
2022/01/23 03:37:40;;;;;;;12.80;6.93;;;6.10;99.90;;;;;;4975208;28;20475;-52
2022/01/23 03:40:07;;;;;;;17.80;7.03;;;6.10;99.90;;;;;;4975649;28;20074;-49
2022/01/23 03:42:35;;;;;;;12.00;6.68;;;6.10;99.90;;;;;;4975649;28;20133;-49
2022/01/23 03:47:38;;;;;;;13.23;6.95;;;6.10;99.90;;;;;;4975377;28;20145;-51
2022/01/23 03:50:07;;;;;;;14.77;7.00;;;6.10;99.90;;;;;;4973782;28;20050;-50
2022/01/23 03:52:33;;;;;;;15.27;7.15;;;6.10;99.90;;;;;;4955877;28;20062;-51
2022/01/23 03:54:59;;;;;;;14.10;7.03;;;6.00;99.90;;;;;;4956403;29;20043;-49
2022/01/23 03:58:13;;;;;;;15.05;6.72;;;6.00;99.90;;;;;;4944672;29;20027;-52
2022/01/23 04:00:39;;;;;;;11.73;6.60;;;6.00;99.90;;;;;;4954833;29;20035;-49
2022/01/23 04:03:05;;;;;;;15.82;7.55;;;6.00;99.90;;;;;;4974856;28;20105;-54
2022/01/23 04:05:30;;;;;;;12.70;6.78;;;6.00;99.90;;;;;;4974656;28;20042;-54
2022/01/23 04:07:56;;;;;;;14.00;6.53;;;6.00;99.90;;;;;;4975036;28;20043;-54
2022/01/23 04:10:23;;;;;;;14.80;6.80;;;6.00;99.90;;;;;;4975145;28;20062;-54
2022/01/23 04:34:09;;;;;;;15.85;7.57;;;6.00;99.90;;;;;;4972973;28;20051;-54
2022/01/23 05:01:35;;;;;;;19.83;8.57;;;5.90;99.90;;;;;;4958311;28;20080;-54
2022/01/23 05:06:36;;;;;;;20.55;9.90;;;5.90;99.90;;;;;;4974301;28;20495;-53
2022/01/23 05:09:02;;;;;;;20.60;10.05;;;5.90;99.90;;;;;;4974176;28;20047;-54
2022/01/23 05:11:27;;;;;;;23.02;10.70;;;5.90;99.90;;;;;;4974155;28;20049;-53
2022/01/23 05:13:53;;;;;;;21.63;10.13;;;5.90;99.90;;;;;;4973686;28;20046;-54
2022/01/23 05:16:19;;;;;;;25.75;10.75;;;5.90;99.90;;;;;;4973807;28;20034;-54
2022/01/23 05:18:45;;;;;;;21.20;9.82;;;5.90;99.90;;;;;;4973505;28;20088;-54
2022/01/23 05:21:34;;;;;;;18.30;9.00;;;5.90;99.90;;;;;;4973702;28;20035;-53
2022/01/23 05:23:56;;;;;;;20.70;9.45;;;5.90;99.90;;;;;;4973568;28;20054;-53
2022/01/23 05:26:22;;;;;;;22.02;10.18;;;5.90;99.90;;;;;;4973943;28;20043;-54
2022/01/23 05:28:47;;;;;;;18.42;9.35;;;5.90;99.90;;;;;;4973764;28;20042;-54
2022/01/23 05:33:44;;;;;;;19.83;9.85;;;5.90;99.90;;;;;;4969072;28;20039;-50
2022/01/23 05:36:09;;;;;;;22.30;9.70;;;6.00;99.90;;;;;;4966216;28;20042;-52
2022/01/23 05:38:35;;;;;;;18.55;9.32;;;6.00;99.90;;;;;;4963453;28;20043;-52
2022/01/23 05:41:01;;;;;;;17.15;8.98;;;6.00;99.90;;;;;;4958800;28;20046;-51
2022/01/23 05:43:27;;;;;;;20.60;8.55;;;6.00;99.90;;;;;;4972125;28;20050;-52
2022/01/23 05:45:53;;;;;;;14.95;8.15;;;6.00;99.90;;;;;;4971703;28;20039;-52
2022/01/23 05:48:19;;;;;;;15.93;8.35;;;6.00;99.90;;;;;;4973420;28;20411;-50
2022/01/23 05:50:46;;;;;;;17.60;8.23;;;6.00;99.90;;;;;;4973452;28;20047;-50
2022/01/23 05:53:12;;;;;;;20.23;8.90;;;6.00;99.90;;;;;;4950598;28;20031;-52
2022/01/23 05:55:38;;;;;;;14.48;7.85;;;5.90;99.90;;;;;;4973280;28;20464;-51
2022/01/23 05:58:03;;;;;;;16.55;8.30;;;5.90;99.90;;;;;;4973555;28;20515;-51
2022/01/23 06:00:29;;;;;;;20.27;9.18;;;5.90;99.90;;;;;;4973252;28;20105;-51
2022/01/23 06:02:55;;;;;;;19.02;8.40;;;5.90;99.90;;;;;;4973176;28;20447;-52
2022/01/23 06:05:21;;;;;;;19.65;7.80;;;5.90;99.90;;;;;;4972326;28;20039;-49
2022/01/23 06:07:50;;;;;;;16.30;7.97;;;5.90;99.90;;;;;;4920739;29;20046;-51
2022/01/23 06:10:22;;;;;;;18.08;8.38;;;5.90;99.90;;;;;;4964361;28;20053;-51
2022/01/23 06:12:48;;;;;;;12.20;6.95;;;5.90;99.90;;;;;;4956073;28;20038;-51
2022/01/23 06:15:15;;;;;;;15.90;7.28;;;5.90;99.90;;;;;;4962854;28;20049;-51
2022/01/23 06:17:42;;;;;;;19.17;7.95;;;5.90;99.90;;;;;;4991563;28;20065;-49
2022/01/23 06:20:10;;;;;;;14.57;7.32;;;5.90;99.90;;;;;;4965664;28;20050;-52
2022/01/23 06:22:36;;;;;;;17.02;7.97;;;5.90;99.90;;;;;;4953518;28;20454;-52
2022/01/23 06:25:05;;;;;;;14.27;7.38;;;5.90;99.90;;;;;;4943784;28;20043;-52
2022/01/23 06:27:31;;;;;;;14.52;7.07;;;5.90;99.90;;;;;;4971523;28;20046;-52
2022/01/23 06:29:57;;;;;;;14.85;7.35;;;5.90;99.90;;;;;;4973018;28;20129;-50
2022/01/23 06:32:24;;;;;;;13.80;7.00;;;5.90;99.90;;;;;;4973047;28;20090;-49
2022/01/23 06:34:49;;;;;;;14.90;7.10;;;5.90;99.90;;;;;;4972364;28;20041;-52
2022/01/23 06:37:15;;;;;;;13.45;6.72;;;5.90;99.90;;;;;;4972550;28;20051;-52
2022/01/23 06:39:41;;;;;;;14.75;7.32;;;5.90;99.90;;;;;;4972979;28;20081;-52
2022/01/23 06:42:08;;;;;;;16.55;7.82;;;5.90;99.90;;;;;;4971603;28;20380;-51
2022/01/23 06:44:34;;;;;;;15.63;7.78;;;5.90;99.90;;;;;;4972419;28;20137;-52
2022/01/23 06:47:00;;;;;;;21.15;7.97;;;5.90;99.90;;;;;;4958500;28;20134;-52
2022/01/23 06:49:26;;;;;;;16.45;7.53;;;5.80;99.90;;;;;;4947858;28;20043;-52
2022/01/23 06:51:52;;;;;;;12.98;7.18;;;5.80;99.90;;;;;;4943411;28;20499;-51
2022/01/23 06:54:18;;;;;;;19.10;7.95;;;5.90;99.90;;;;;;4983172;28;20039;-54
2022/01/23 06:56:44;;;;;;;16.85;7.80;;;5.90;99.90;;;;;;4976570;28;20507;-54
2022/01/23 06:59:10;;;;;;;13.35;7.38;;;5.90;99.90;;;;;;4959198;28;20102;-54
2022/01/23 07:01:35;;;;;;;18.33;8.20;;;5.90;99.90;;;;;;4976258;28;20042;-53
2022/01/23 07:04:01;;;;;;;16.67;7.45;;;5.90;99.90;;;;;;4976001;28;20443;-51
2022/01/23 07:06:28;;;;;;;14.88;7.07;;;5.90;99.90;;;;;;4976698;28;20050;-53
2022/01/23 07:08:53;;;;;;;14.02;7.53;;;5.90;99.90;;;;;;4976415;28;20039;-54
2022/01/23 07:11:19;;;;;;;15.60;7.47;;;5.90;99.90;;;;;;4976408;28;20585;-54
2022/01/23 07:13:45;;;;;;;14.90;7.78;;;5.90;99.90;;;;;;4974900;28;20463;-54
2022/01/23 07:16:11;;;;;;;14.23;6.85;;;5.90;99.90;;;;;;4976209;28;20384;-53
2022/01/23 07:18:36;;;;;;;13.30;7.13;;;5.90;99.90;;;;;;4976235;28;20495;-54
2022/01/23 07:21:02;;;;;;;14.55;6.78;;;5.80;99.90;;;;;;4975972;28;20122;-53
2022/01/23 07:23:27;;;;;;;15.93;7.00;;;5.80;99.90;;;;;;4977956;28;20039;-49
2022/01/23 07:25:53;;;;;;;16.58;7.63;;;5.80;99.90;;;;;;4976211;28;20035;-50
2022/01/23 07:28:22;;;;;;;10.52;6.38;;;5.80;99.90;;;;;;4966621;28;20045;-50
2022/01/23 07:30:54;;;;;;;12.05;6.53;;;5.80;99.90;;;;;;4992588;28;20137;-51
2022/01/23 07:33:20;;;;;;;14.27;6.72;;;5.80;99.90;;;;;;4967650;28;20043;-50
2022/01/23 07:35:46;;;;;;;13.55;6.68;;;5.80;99.90;;;;;;4974730;28;20470;-48
2022/01/23 07:38:16;;;;;;;14.10;6.53;;;5.80;99.90;;;;;;4974511;28;20051;-50
2022/01/23 07:40:43;;;;;;;15.93;6.93;;;5.80;99.90;;;;;;4975705;28;20082;-48
2022/01/23 07:43:09;;;;;;;12.88;6.75;;;5.80;99.90;;;;;;4979490;28;20050;-52
2022/01/23 07:45:35;;;;;;;17.13;6.88;;;5.80;99.90;;;;;;4975723;28;20043;-49
2022/01/23 07:48:00;;;;;;;12.77;6.90;;;5.80;99.90;;;;;;4975842;28;20466;-53
2022/01/23 07:50:26;;;;;;;14.32;7.13;;;5.80;99.90;;;;;;4984070;28;20039;-50
2022/01/23 07:52:51;;;;;;;16.92;6.32;;;5.80;99.90;;;;;;4976188;28;20042;-50
2022/01/23 07:55:17;;;;;;;15.70;6.88;;;5.80;99.90;;;;;;4973942;28;20046;-51
2022/01/23 07:57:43;;;;;;;13.48;6.65;;;5.80;99.90;;;;;;4974211;28;20041;-51
2022/01/23 08:00:10;;;;;;;18.33;7.03;;;5.80;99.90;;;;;;4967073;28;20529;-53
2022/01/23 08:02:37;;;;;;;15.93;6.65;;;5.90;99.90;;;;;;4957133;28;20038;-51
2022/01/23 08:05:03;;;;;;;11.45;5.78;;;5.90;99.90;;;;;;4975763;28;20046;-51
2022/01/23 08:10:04;;;;;;;11.80;6.70;;;5.90;99.90;;;;;;4977040;28;20495;-52
2022/01/23 08:12:30;;;;;;;15.05;7.05;;;5.90;99.90;;;;;;4974908;28;20043;-51
2022/01/23 08:14:57;;;;;;;16.17;8.48;;;5.90;99.90;;;;;;4975433;28;20042;-49
2022/01/23 08:17:26;;;;;;;17.23;8.73;;;5.90;99.90;;;;;;4975245;28;20487;-51
2022/01/23 08:19:57;;;;;;;17.67;9.10;;;5.90;99.90;;;;;;4975100;28;20038;-51
2022/01/23 08:22:25;;;;;;;18.10;8.90;;;5.90;99.90;;;;;;4973585;28;20042;-50
2022/01/23 08:24:54;;;;;;;16.58;9.45;;;6.00;99.90;;;;;;4974783;28;20043;-50
2022/01/23 08:27:19;;;;;;;19.75;9.45;;;6.00;99.90;;;;;;4957521;28;20605;-50
2022/01/23 08:29:45;;;;;;;19.95;10.00;;;6.00;99.90;;;;;;4974774;28;20134;-48
2022/01/23 08:32:11;;;;;;;20.13;9.18;;;6.00;99.90;;;;;;4973392;28;20497;-51
2022/01/23 08:34:38;;;;;;;20.67;10.65;;;6.00;99.90;;;;;;4956905;28;20054;-52
2022/01/23 08:37:06;;;;;;;21.15;10.10;;;6.00;99.90;;;;;;4969966;28;20039;-50
2022/01/23 08:39:35;;;;;;;21.33;10.30;;;6.00;99.90;;;;;;4973178;28;20039;-51
2022/01/23 08:42:06;;;;;;;19.70;9.98;;;6.10;99.90;;;;;;4969481;28;20046;-50
2022/01/23 08:44:33;;;;;;;17.25;10.57;;;6.10;99.90;;;;;;4969052;28;20054;-52
2022/01/23 08:47:00;;;;;;;19.90;10.38;;;6.10;99.90;;;;;;4951632;28;20673;-51
2022/01/23 08:49:27;;;;;;;20.52;10.43;;;6.10;99.90;;;;;;4954086;28;20154;-50
2022/01/23 08:51:54;;;;;;;24.65;10.52;;;6.10;99.90;;;;;;4968278;28;20035;-52
2022/01/23 08:54:20;;;;;;;20.27;10.10;;;6.20;99.90;;;;;;4974193;28;20046;-51
2022/01/23 08:56:45;;;;;;;19.95;10.23;;;6.10;99.90;;;;;;4973033;28;20034;-51
2022/01/23 08:59:11;;;;;;;21.42;10.10;;;6.20;99.90;;;;;;4974392;28;20070;-50
2022/01/23 09:01:37;;;;;;;22.45;11.10;;;6.20;99.90;;;;;;4974264;28;20506;-51
2022/01/23 09:04:04;;;;;;;19.73;10.63;;;6.20;99.90;;;;;;4992446;28;20050;-52
2022/01/23 09:06:30;;;;;;;22.50;10.77;;;6.30;99.90;;;;;;4993679;28;20072;-50
2022/01/23 09:08:58;;;;;;;18.95;10.18;;;6.30;99.90;;;;;;4993255;28;20514;-51
2022/01/23 09:14:10;;;;;;;19.73;10.45;;;6.30;99.90;;;;;;4993355;28;20566;-48
2022/01/23 09:16:38;;;;;;;23.17;10.70;;;6.30;99.90;;;;;;4992677;28;20030;-51
2022/01/23 09:19:05;;;;;;;17.45;10.38;;;6.30;99.90;;;;;;4993414;28;20038;-48
2022/01/23 09:21:31;;;;;;;20.65;11.85;;;6.30;99.90;;;;;;4979817;28;20041;-50
2022/01/23 09:23:56;;;;;;;18.27;9.82;;;6.40;99.90;;;;;;4973804;28;20042;-51
2022/01/23 09:26:23;;;;;;;21.65;10.43;;;6.40;99.90;;;;;;4974043;28;20554;-51
2022/01/23 09:28:53;;;;;;;22.67;10.73;;;6.40;99.90;;;;;;4973673;28;20047;-51
2022/01/23 09:31:53;;;;;;;18.65;10.40;;;6.40;99.90;;;;;;4973629;28;20499;-50
2022/01/23 09:34:11;;;;;;;20.42;10.65;;;6.40;99.90;;;;;;4971183;28;20047;-54
2022/01/23 09:36:36;;;;;;;16.77;9.43;;;6.50;99.90;;;;;;4973330;28;20039;-51
2022/01/23 09:39:03;;;;;;;20.00;10.10;;;6.50;99.90;;;;;;4973656;28;20046;-51
2022/01/23 09:41:31;;;;;;;15.93;8.82;;;6.50;99.90;;;;;;4973435;28;20511;-49
2022/01/23 09:44:00;;;;;;;14.93;8.60;;;6.50;99.90;;;;;;4973481;28;20411;-50
2022/01/23 09:46:26;;;;;;;15.40;8.55;;;6.50;99.90;;;;;;4973597;28;20100;-52
2022/01/23 09:48:53;;;;;;;16.38;8.75;;;6.50;99.90;;;;;;4973248;28;20042;-53
2022/01/23 09:51:21;;;;;;;17.20;9.10;;;6.60;99.90;;;;;;4973294;28;20045;-51
2022/01/23 09:53:47;;;;;;;15.95;9.38;;;6.60;99.90;;;;;;4973373;28;20043;-50
2022/01/23 09:56:15;;;;;;;13.95;8.38;;;6.60;99.90;;;;;;4973506;28;20078;-51
2022/01/23 09:58:41;;;;;;;13.88;7.90;;;6.60;99.90;;;;;;4956089;28;20049;-51
2022/01/23 10:01:06;;;;;;;16.67;7.82;;;6.70;99.90;;;;;;4973213;28;20049;-51
2022/01/23 10:03:32;;;;;;;14.63;8.35;;;6.70;99.90;;;;;;4972909;28;20038;-53
2022/01/23 10:05:58;;;;;;;14.25;8.07;;;6.70;99.90;;;;;;4971622;28;20054;-51
2022/01/23 10:08:28;;;;;;;14.15;8.88;;;6.80;99.90;;;;;;4973232;28;20035;-51
2022/01/23 10:10:56;;;;;;;13.43;7.97;;;6.80;99.90;;;;;;4973298;28;20043;-50
2022/01/23 10:13:26;;;;;;;14.20;7.65;;;6.80;99.90;;;;;;4971788;28;20039;-51
2022/01/23 10:15:52;;;;;;;14.63;7.72;;;6.80;99.90;;;;;;4971800;28;20042;-49
2022/01/23 10:18:19;;;;;;;16.88;8.75;;;6.90;99.90;;;;;;4971755;28;20053;-51
2022/01/23 10:20:46;;;;;;;15.60;8.20;;;6.90;99.90;;;;;;4972032;28;20130;-52
2022/01/23 10:23:13;;;;;;;12.75;7.40;;;7.00;99.90;;;;;;4972758;28;20518;-51
2022/01/23 10:25:42;;;;;;;14.40;8.02;;;6.90;99.90;;;;;;4971716;28;20102;-51
2022/01/23 10:28:17;;;;;;;11.80;7.80;;;7.00;99.90;;;;;;4971653;28;20043;-51
2022/01/23 10:30:46;;;;;;;13.90;7.13;;;7.00;99.90;;;;;;4972098;28;20090;-49
2022/01/23 10:33:22;;;;;;;12.05;6.65;;;7.10;99.90;;;;;;4972248;28;20181;-48
2022/01/23 10:35:52;;;;;;;12.70;7.38;;;7.10;99.90;;;;;;4973057;28;20135;-47
2022/01/23 10:38:18;;;;;;;14.70;8.52;;;7.10;99.90;;;;;;4973156;28;20048;-51
2022/01/23 10:40:50;;;;;;;13.95;8.77;;;7.20;99.90;;;;;;4972772;28;20166;-49
2022/01/23 10:48:41;;;;;;;15.77;7.57;;;7.20;99.90;;;;;;4972474;28;20078;-51
2022/01/23 10:51:30;;;;;;;12.07;7.53;;;7.20;99.90;;;;;;4973107;28;20054;-52
2022/01/23 10:54:07;;;;;;;10.98;6.80;;;7.30;99.90;;;;;;4972697;28;20047;-51
2022/01/23 10:56:53;;;;;;;10.85;6.63;;;7.30;99.90;;;;;;4955757;28;20114;-48
2022/01/23 10:59:18;;;;;;;10.85;6.53;;;7.30;99.90;;;;;;4972784;28;20134;-50
2022/01/23 11:02:03;;;;;;;9.90;6.18;;;7.40;99.90;;;;;;4972646;28;20117;-51
2022/01/23 11:04:29;;;;;;;7.85;4.78;;;7.40;99.90;;;;;;4972640;28;20054;-48
2022/01/23 11:07:00;;;;;;;9.13;5.07;;;7.40;99.90;;;;;;4971280;28;20052;-48
2022/01/23 11:09:28;;;;;;;6.90;4.10;;;7.40;99.90;;;;;;4955825;28;20407;-50
2022/01/23 11:12:02;;;;;;;6.60;3.80;;;7.40;99.90;;;;;;4971323;28;20071;-53
2022/01/23 11:17:23;;;;;;;9.25;3.80;;;7.50;99.90;;;;;;4972476;28;20050;-48
2022/01/23 11:19:53;;;;;;;6.70;3.88;;;7.50;99.90;;;;;;4972596;28;20042;-48
2022/01/23 11:22:31;;;;;;;7.38;3.75;;;7.50;99.90;;;;;;4971424;28;20400;-51
2022/01/23 11:24:59;;;;;;;6.38;3.95;;;7.50;99.90;;;;;;4972389;28;20039;-50
2022/01/23 11:27:32;;;;;;;5.72;3.67;;;7.60;99.90;;;;;;4972594;28;20042;-53
2022/01/23 11:30:00;;;;;;;8.43;4.57;;;7.60;99.90;;;;;;4972616;28;20049;-48
2022/01/23 11:32:29;;;;;;;6.25;3.35;;;7.60;99.90;;;;;;4974428;28;20038;-51
2022/01/23 11:35:04;;;;;;;4.43;2.25;;;7.50;99.90;;;;;;4958502;28;20031;-49
2022/01/23 11:37:30;;;;;;;2.30;1.38;;;7.60;99.90;;;;;;4976111;28;20047;-48
2022/01/23 11:40:01;;;;;;;2.03;1.40;;;7.50;99.90;;;;;;4975917;28;20570;-50
2022/01/23 11:50:49;;;;;;;2.50;0.80;;;7.50;99.90;;;;;;4975441;28;20177;-49
2022/01/23 11:53:50;;;;;;;1.40;1.00;;;7.50;99.90;;;;;;4974395;28;20328;-48
2022/01/23 11:56:25;;;;;;;2.63;1.10;;;7.40;99.90;;;;;;4975575;28;20046;-49
2022/01/23 11:58:55;;;;;;;4.68;1.70;;;7.40;99.90;;;;;;4975652;28;20043;-51
2022/01/23 12:01:25;;;;;;;3.65;1.75;;;7.40;99.90;;;;;;4958193;28;20043;-50
2022/01/23 12:04:06;;;;;;;2.15;1.60;;;7.40;99.90;;;;;;4975330;28;20074;-51
2022/01/23 12:06:33;;;;;;;2.90;1.20;;;7.40;99.90;;;;;;4974772;28;20053;-51
2022/01/23 12:09:11;;;;;;;2.42;1.50;;;7.40;99.90;;;;;;4957803;28;20127;-48
2022/01/23 12:11:41;;;;;;;3.78;1.40;;;7.40;99.90;;;;;;4975288;28;20043;-50
2022/01/23 12:17:00;;;;;;;2.67;1.60;;;7.40;99.90;;;;;;4975129;28;20042;-51
2022/01/23 12:19:28;;;;;;;3.25;1.83;;;7.40;99.90;;;;;;4957809;28;20035;-49
2022/01/23 12:21:59;;;;;;;3.83;1.83;;;7.50;99.90;;;;;;4975047;28;20503;-51
2022/01/23 12:24:26;;;;;;;3.63;1.75;;;7.50;99.90;;;;;;4974940;28;20114;-51
2022/01/23 12:27:24;;;;;;;2.83;1.48;;;7.50;99.90;;;;;;4973857;28;20038;-50
2022/01/23 12:29:51;;;;;;;3.00;1.33;;;7.50;99.90;;;;;;4975062;28;20047;-51
2022/01/23 12:32:18;;;;;;;1.50;1.05;;;7.50;99.90;;;;;;4957331;28;20491;-51
2022/01/23 12:34:47;;;;;;;2.13;0.90;;;7.50;99.90;;;;;;4974682;28;20031;-49
2022/01/23 12:37:13;;;;;;;1.65;1.10;;;7.50;99.90;;;;;;4989708;28;20407;-50
2022/01/23 12:39:38;;;;;;;1.08;0.65;;;7.60;99.90;;;;;;4974687;28;20046;-53
2022/01/23 12:42:05;;;;;;;3.33;1.42;;;7.50;99.90;;;;;;4973018;28;20388;-49
2022/01/23 12:44:36;;;;;;;3.00;1.00;;;7.50;99.90;;;;;;4974618;28;20035;-50
2022/01/23 12:47:17;;;;;;;2.10;1.20;;;7.50;99.90;;;;;;4974776;28;20372;-48
2022/01/23 12:49:51;;;;;;;2.13;1.38;;;7.50;99.90;;;;;;4957177;28;20286;-51
2022/01/23 12:52:19;;;;;;;2.95;1.63;;;7.50;99.90;;;;;;4974335;28;20040;-51
2022/01/23 12:54:51;;;;;;;3.33;1.38;;;7.50;99.90;;;;;;4973302;28;20522;-51
2022/01/23 12:57:34;;;;;;;4.50;1.40;;;7.50;99.90;;;;;;4973454;28;20054;-49
2022/01/23 13:00:03;;;;;;;3.20;1.38;;;7.50;99.90;;;;;;4975068;28;20078;-48
2022/01/23 13:02:38;;;;;;;2.75;1.60;;;7.60;99.90;;;;;;4974618;28;20401;-50
2022/01/23 13:05:05;;;;;;;4.70;2.47;;;7.50;99.90;;;;;;4973152;28;20068;-51
2022/01/23 13:07:40;;;;;;;4.53;2.40;;;7.60;99.90;;;;;;4957746;28;20507;-49
2022/01/23 13:10:49;;;;;;;4.38;2.42;;;7.50;99.90;;;;;;4974639;28;20078;-51
2022/01/23 13:18:35;;;;;;;4.95;2.53;;;7.60;99.90;;;;;;4974024;28;20504;-51
2022/01/23 13:35:03;;;;;;;7.38;3.38;;;7.50;99.90;;;;;;4973907;28;20038;-49
2022/01/23 13:37:34;;;;;;;6.82;3.80;;;7.50;99.90;;;;;;4974017;28;20077;-48
2022/01/23 13:40:05;;;;;;;5.60;3.00;;;7.50;99.90;;;;;;4973623;28;20114;-48
2022/01/23 13:59:39;;;;;;;5.80;3.42;;;7.50;99.90;;;;;;4973565;28;20125;-49
2022/01/23 14:02:28;;;;;;;5.13;3.30;;;7.40;99.90;;;;;;4972982;28;20039;-49
2022/01/23 14:05:02;;;;;;;6.57;3.58;;;7.40;99.90;;;;;;4973246;28;20039;-52
2022/01/23 14:07:28;;;;;;;8.02;3.88;;;7.40;99.90;;;;;;4973516;28;20046;-52
2022/01/23 14:09:57;;;;;;;5.80;3.40;;;7.40;99.90;;;;;;4973333;28;20388;-50
2022/01/23 14:12:24;;;;;;;6.90;3.20;;;7.40;99.90;;;;;;4973174;28;20031;-51
2022/01/23 14:15:05;;;;;;;6.32;3.28;;;7.50;99.90;;;;;;4972992;28;20034;-49
2022/01/23 14:17:36;;;;;;;6.07;3.38;;;7.40;99.90;;;;;;4972742;28;20125;-52
2022/01/23 14:20:05;;;;;;;5.53;3.10;;;7.40;99.90;;;;;;4972841;28;20082;-49
2022/01/23 14:22:34;;;;;;;4.82;2.97;;;7.50;99.90;;;;;;4972810;28;20102;-51
2022/01/23 14:25:16;;;;;;;5.85;3.33;;;7.40;99.90;;;;;;4973078;28;20046;-49
2022/01/23 14:27:45;;;;;;;5.03;3.00;;;7.40;99.90;;;;;;4972958;28;20049;-49
2022/01/23 14:30:58;;;;;;;4.10;2.40;;;7.40;99.90;;;;;;4973397;28;20050;-51
2022/01/23 14:33:34;;;;;;;;;;;7.40;99.90;;;;;;4972980;28;20039;-54
2022/01/23 14:36:13;;;;;;;4.60;2.50;;;7.40;99.90;;;;;;4972999;28;19918;-54
2022/01/23 14:38:38;;;;;;;2.35;1.80;;;7.40;99.90;;;;;;4971678;28;20149;-54
2022/01/23 14:41:09;;;;;;;5.07;1.80;;;7.40;99.90;;;;;;4972914;28;20126;-54
2022/01/23 14:43:41;;;;;;;2.50;1.60;;;7.40;99.90;;;;;;4971884;28;20060;-54
2022/01/23 14:46:10;;;;;;;2.27;1.20;;;7.30;99.90;;;;;;4973076;28;20041;-54
2022/01/23 14:48:44;;;;;;;2.50;1.20;;;7.30;99.90;;;;;;4972731;28;20051;-54
2022/01/23 14:51:13;;;;;;;1.55;1.10;;;7.30;99.90;;;;;;4972854;28;20285;-54
2022/01/23 14:53:40;;;;;;;3.38;1.00;;;7.30;99.90;;;;;;4955510;28;20043;-54
2022/01/23 14:56:08;;;;;;;1.80;0.85;;;7.30;99.90;;;;;;4972830;28;20035;-54
2022/01/23 14:58:34;;;;;;;1.40;1.00;;;7.30;99.90;;;;;;4972724;28;20054;-54
2022/01/23 15:01:02;;;;;;;1.15;1.00;;;7.30;99.90;;;;;;4972407;28;20102;-54
2022/01/23 15:03:31;;;;;;;2.22;1.30;;;7.30;99.90;;;;;;4972326;28;20550;-54
2022/01/23 15:05:59;;;;;;;3.22;1.40;;;7.30;99.90;;;;;;4974231;28;20439;-54
2022/01/23 15:08:25;;;;;;;1.73;1.20;;;7.30;99.90;;;;;;4976469;28;20396;-54
2022/01/23 15:10:55;;;;;;;3.00;1.17;;;7.30;99.90;;;;;;4976399;28;20617;-54
2022/01/23 15:13:22;;;;;;;1.10;0.80;;;7.30;99.90;;;;;;4976031;28;20065;-54
2022/01/23 15:15:52;;;;;;;1.80;1.00;;;7.20;99.90;;;;;;4976492;28;20277;-54
2022/01/23 15:18:18;;;;;;;5.07;1.00;;;7.20;99.90;;;;;;4976136;28;20046;-54
2022/01/23 15:20:45;;;;;;;4.63;1.20;;;7.20;99.90;;;;;;4976426;28;20046;-54
2022/01/23 15:23:11;;;;;;;4.25;1.10;;;7.20;99.90;;;;;;4976055;28;20045;-53
2022/01/23 15:25:38;;;;;;;1.75;1.30;;;7.20;99.90;;;;;;4976250;28;20090;-54
2022/01/23 15:28:05;;;;;;;3.28;1.27;;;7.20;99.90;;;;;;4959259;28;20045;-54
2022/01/23 15:30:31;;;;;;;3.03;1.27;;;7.20;99.90;;;;;;4975970;28;20122;-54
2022/01/23 15:32:57;;;;;;;2.35;1.20;;;7.20;99.90;;;;;;4975431;28;20454;-54
2022/01/23 15:35:25;;;;;;;3.35;1.20;;;7.20;99.90;;;;;;4958373;28;20039;-54
2022/01/23 15:37:51;;;;;;;3.20;1.30;;;7.20;99.90;;;;;;4942754;28;20050;-54
2022/01/23 15:40:19;;;;;;;2.45;1.30;;;7.20;99.90;;;;;;4975693;28;20094;-54
2022/01/23 15:42:46;;;;;;;2.15;1.27;;;7.20;99.90;;;;;;4975488;28;20045;-53
2022/01/23 15:45:13;;;;;;;2.38;1.40;;;7.20;99.90;;;;;;4975544;28;20070;-54
2022/01/23 15:47:39;;;;;;;3.67;1.70;;;7.20;99.90;;;;;;4974590;28;20038;-53
2022/01/23 15:50:07;;;;;;;2.50;1.48;;;7.20;99.90;;;;;;4975595;28;20495;-53
2022/01/23 15:52:33;;;;;;;3.08;1.70;;;7.10;99.90;;;;;;4975691;28;20042;-54
2022/01/23 15:54:59;;;;;;;2.75;1.70;;;7.10;99.90;;;;;;4970400;28;20042;-54
2022/01/23 15:57:25;;;;;;;4.63;1.77;;;7.10;99.90;;;;;;4962197;28;20039;-54
2022/01/23 15:59:50;;;;;;;3.05;1.63;;;7.10;99.90;;;;;;4981658;28;20046;-54
2022/01/23 16:02:16;;;;;;;2.35;1.70;;;7.20;99.90;;;;;;4975480;28;20038;-55
2022/01/23 16:04:42;;;;;;;3.97;1.60;;;7.10;99.90;;;;;;4970353;28;20038;-54
2022/01/23 16:07:18;;;;;;;3.90;1.73;;;7.20;99.90;;;;;;4959985;28;20668;-52
2022/01/23 16:10:11;;;;;;;4.20;1.90;;;7.10;99.90;;;;;;4985123;28;20039;-50
2022/01/23 16:12:41;;;;;;;7.28;4.55;;;7.10;99.90;;;;;;4968832;28;20403;-49
2022/01/23 16:15:10;;;;;;;5.40;2.88;;;7.10;99.90;;;;;;4955124;28;20409;-51
2022/01/23 16:17:36;;;;;;;5.15;2.88;;;6.80;99.90;;;;;;4969848;28;20074;-52
2022/01/23 16:20:03;;;;;;;5.80;3.60;;;7.10;99.90;;;;;;4971263;28;20070;-50
2022/01/23 16:22:29;;;;;;;5.47;3.70;;;7.10;99.90;;;;;;4971413;28;20133;-49